Time;durP1;ratioP1;P1;durP2;ratioP2;P2;SDS_P1;SDS_P2;PMS_P1;PMS_P2;Temp;Humidity;BMP_temperature;BMP_pressure;BME280_temperature;BME280_humidity;BME280_pressure;Samples;Min_cycle;Max_cycle;Signal;HPM_P1;HPM_P2
2022/10/19 00:00:46;;;;;;;5.13;3.55;;;;;;;;;;5057723;28;20048;-88
2022/10/19 00:03:12;;;;;;;9.40;3.88;;;;;;;;;;5057781;28;20037;-88
2022/10/19 00:05:37;;;;;;;6.50;3.78;;;;;;;;;;5058393;28;20037;-87
2022/10/19 00:08:03;;;;;;;7.07;4.00;;;;;;;;;;5057884;28;20036;-88
2022/10/19 00:10:28;;;;;;;9.20;4.07;;;;;;;;;;5057933;28;20459;-88
2022/10/19 00:12:54;;;;;;;9.32;4.03;;;;;;;;;;5057225;28;20033;-88
2022/10/19 00:15:19;;;;;;;8.20;3.58;;;;;;;;;;5057415;28;20088;-88
2022/10/19 00:17:45;;;;;;;6.90;3.78;;;;;;;;;;5057857;28;20032;-88
2022/10/19 00:20:11;;;;;;;8.40;3.88;;;;;;;;;;5057504;28;20527;-87
2022/10/19 00:22:37;;;;;;;13.40;3.63;;;;;;;;;;5055758;28;20045;-87
2022/10/19 00:25:03;;;;;;;6.05;3.55;;;;;;;;;;5057499;28;20039;-88
2022/10/19 00:27:29;;;;;;;8.90;3.30;;;;;;;;;;5057626;28;20072;-88
2022/10/19 00:29:54;;;;;;;9.40;3.80;;;;;;;;;;5056138;28;20037;-88
2022/10/19 00:32:20;;;;;;;8.25;3.58;;;;;;;;;;5057455;28;20059;-88
2022/10/19 00:34:45;;;;;;;6.20;3.67;;;;;;;;;;5056958;28;20097;-87
2022/10/19 00:37:11;;;;;;;5.85;3.60;;;;;;;;;;5056763;28;20496;-88
2022/10/19 00:39:37;;;;;;;7.45;3.60;;;;;;;;;;5057557;28;20033;-86
2022/10/19 00:42:02;;;;;;;5.53;3.67;;;;;;;;;;5055917;28;20039;-87
2022/10/19 00:44:28;;;;;;;7.60;3.88;;;;;;;;;;5057558;28;20457;-88
2022/10/19 00:46:58;;;;;;;11.27;3.58;;;;;;;;;;5057782;28;20128;-88
2022/10/19 00:49:32;;;;;;;6.50;3.42;;;;;;;;;;5056038;28;20041;-87
2022/10/19 00:52:04;;;;;;;5.10;3.15;;;;;;;;;;5057416;28;20033;-88
2022/10/19 00:54:31;;;;;;;6.43;3.30;;;;;;;;;;5057507;28;20037;-88
2022/10/19 00:56:57;;;;;;;9.00;3.47;;;;;;;;;;5057700;28;20446;-87
2022/10/19 00:59:25;;;;;;;6.78;3.45;;;;;;;;;;5057464;28;20036;-88
2022/10/19 01:01:52;;;;;;;9.07;3.42;;;;;;;;;;5057260;28;20124;-87
2022/10/19 01:04:20;;;;;;;6.28;3.22;;;;;;;;;;5060739;28;20033;-87
2022/10/19 01:06:46;;;;;;;7.25;3.63;;;;;;;;;;5061104;28;20036;-88
2022/10/19 01:09:12;;;;;;;6.07;3.20;;;;;;;;;;5060014;28;20040;-87
2022/10/19 01:11:40;;;;;;;8.30;3.60;;;;;;;;;;5061509;28;20037;-87
2022/10/19 01:14:18;;;;;;;7.93;3.70;;;;;;;;;;5059474;28;20091;-88
2022/10/19 01:17:05;;;;;;;9.65;3.78;;;;;;;;;;5060955;28;20100;-88
2022/10/19 01:19:59;;;;;;;9.57;3.60;;;;;;;;;;5060302;28;20041;-88
2022/10/19 01:22:49;;;;;;;5.90;3.40;;;;;;;;;;5060509;28;20037;-87
2022/10/19 01:25:51;;;;;;;8.45;3.40;;;;;;;;;;5060932;28;20037;-88
2022/10/19 01:28:51;;;;;;;6.30;3.58;;;;;;;;;;5061730;28;20037;-88
2022/10/19 01:31:19;;;;;;;11.40;3.60;;;;;;;;;;5061686;28;20055;-87
2022/10/19 01:34:23;;;;;;;10.93;3.83;;;;;;;;;;5061002;28;20055;-88
2022/10/19 01:37:10;;;;;;;7.93;3.60;;;;;;;;;;5060660;28;20048;-88
2022/10/19 01:39:56;;;;;;;11.75;3.60;;;;;;;;;;5061031;28;20124;-88
2022/10/19 01:42:21;;;;;;;9.00;3.67;;;;;;;;;;5060736;28;20132;-88
2022/10/19 01:44:54;;;;;;;7.07;3.60;;;;;;;;;;5060854;28;20056;-88
2022/10/19 01:47:29;;;;;;;9.13;4.20;;;;;;;;;;5059015;28;20132;-87
2022/10/19 01:50:35;;;;;;;13.02;3.80;;;;;;;;;;5060515;28;20045;-88
2022/10/19 01:53:04;;;;;;;5.63;3.60;;;;;;;;;;5002477;28;20756;-87
2022/10/19 01:55:30;;;;;;;5.60;3.47;;;;;;;;;;5052326;28;20071;-89
2022/10/19 01:58:01;;;;;;;5.88;3.80;;;;;;;;;;5059637;28;20401;-88
2022/10/19 02:00:30;;;;;;;4.93;3.40;;;;;;;;;;5060235;28;20033;-88
2022/10/19 02:02:57;;;;;;;9.13;3.35;;;;;;;;;;5059474;28;20029;-87
2022/10/19 02:05:29;;;;;;;7.50;3.50;;;;;;;;;;5059978;28;20468;-88
2022/10/19 02:07:58;;;;;;;5.95;3.35;;;;;;;;;;5058566;28;20045;-87
2022/10/19 02:10:25;;;;;;;6.93;3.50;;;;;;;;;;5060136;28;20037;-88
2022/10/19 02:12:53;;;;;;;8.80;3.72;;;;;;;;;;5060542;28;20040;-88
2022/10/19 02:15:21;;;;;;;5.35;3.00;;;;;;;;;;5059044;28;20028;-88
2022/10/19 02:17:55;;;;;;;5.25;2.80;;;;;;;;;;5058305;28;20044;-87
2022/10/19 02:20:21;;;;;;;5.30;3.00;;;;;;;;;;5059738;28;20512;-88
2022/10/19 02:22:46;;;;;;;4.50;2.65;;;;;;;;;;5058315;28;20033;-88
2022/10/19 02:25:12;;;;;;;7.28;2.80;;;;;;;;;;5059758;28;20167;-88
2022/10/19 02:27:42;;;;;;;4.50;3.00;;;;;;;;;;5058258;28;20113;-87
2022/10/19 02:30:09;;;;;;;6.35;3.13;;;;;;;;;;5059478;28;20486;-87
2022/10/19 02:32:35;;;;;;;4.75;2.78;;;;;;;;;;5058828;28;20037;-88
2022/10/19 02:35:01;;;;;;;5.43;2.97;;;;;;;;;;5058569;28;20079;-88
2022/10/19 02:37:26;;;;;;;5.00;2.90;;;;;;;;;;5059665;28;20049;-87
2022/10/19 02:39:52;;;;;;;5.90;3.28;;;;;;;;;;5057816;28;20401;-88
2022/10/19 02:42:39;;;;;;;4.75;2.88;;;;;;;;;;5060087;28;20497;-87
2022/10/19 02:45:09;;;;;;;6.20;3.13;;;;;;;;;;5059282;28;20033;-88
2022/10/19 02:47:45;;;;;;;5.53;3.10;;;;;;;;;;5059622;28;20040;-87
2022/10/19 02:50:11;;;;;;;6.50;3.30;;;;;;;;;;5059217;28;20179;-87
2022/10/19 02:52:38;;;;;;;7.22;3.35;;;;;;;;;;5059690;28;20075;-87
2022/10/19 02:55:05;;;;;;;6.47;3.53;;;;;;;;;;5059148;28;20037;-88
2022/10/19 02:57:31;;;;;;;7.25;3.60;;;;;;;;;;5058208;28;20020;-87
2022/10/19 02:59:57;;;;;;;9.05;3.50;;;;;;;;;;5059270;28;20044;-88
2022/10/19 03:02:23;;;;;;;5.78;3.55;;;;;;;;;;5059744;28;20032;-87
2022/10/19 03:04:48;;;;;;;5.97;2.90;;;;;;;;;;5056783;28;20393;-88
2022/10/19 03:07:19;;;;;;;5.40;3.50;;;;;;;;;;5059213;28;20060;-87
2022/10/19 03:09:45;;;;;;;7.32;4.80;;;;;;;;;;5059413;28;20040;-87
2022/10/19 03:12:12;;;;;;;11.10;7.50;;;;;;;;;;5057350;28;20045;-87
2022/10/19 03:14:38;;;;;;;10.88;5.45;;;;;;;;;;5058702;28;20041;-86
2022/10/19 03:17:04;;;;;;;6.55;4.68;;;;;;;;;;5058934;28;20033;-87
2022/10/19 03:19:30;;;;;;;8.35;5.18;;;;;;;;;;5057718;28;20091;-87
2022/10/19 03:21:55;;;;;;;9.00;4.75;;;;;;;;;;5058812;28;20033;-87
2022/10/19 03:24:21;;;;;;;9.45;4.50;;;;;;;;;;5058157;28;20043;-88
2022/10/19 03:26:47;;;;;;;6.53;3.90;;;;;;;;;;5058908;28;20037;-88
2022/10/19 03:29:12;;;;;;;8.75;4.60;;;;;;;;;;5057641;28;20032;-87
2022/10/19 03:31:38;;;;;;;6.00;3.88;;;;;;;;;;5058087;28;20032;-87
2022/10/19 03:34:03;;;;;;;6.57;3.63;;;;;;;;;;5057718;28;20052;-88
2022/10/19 03:36:31;;;;;;;8.25;3.70;;;;;;;;;;5057410;28;20504;-87
2022/10/19 03:39:01;;;;;;;5.30;3.58;;;;;;;;;;5058805;28;20037;-88
2022/10/19 03:41:29;;;;;;;5.70;3.67;;;;;;;;;;5058518;28;20033;-88
2022/10/19 03:43:55;;;;;;;6.13;4.20;;;;;;;;;;5058210;28;20041;-88
2022/10/19 03:46:21;;;;;;;10.10;4.18;;;;;;;;;;5058407;28;20064;-87
2022/10/19 03:48:46;;;;;;;5.93;4.18;;;;;;;;;;5058275;28;20037;-85
2022/10/19 03:51:14;;;;;;;10.07;4.10;;;;;;;;;;5058783;28;20064;-87
2022/10/19 03:53:40;;;;;;;6.13;4.10;;;;;;;;;;5056985;28;20041;-88
2022/10/19 03:56:18;;;;;;;10.60;4.18;;;;;;;;;;5057239;28;20040;-87
2022/10/19 03:58:46;;;;;;;8.35;3.80;;;;;;;;;;5058286;28;20452;-88
2022/10/19 04:01:14;;;;;;;6.43;3.70;;;;;;;;;;5058461;28;20468;-87
2022/10/19 04:03:46;;;;;;;6.15;4.63;;;;;;;;;;5058256;28;20414;-85
2022/10/19 04:06:16;;;;;;;8.88;6.45;;;;;;;;;;5055429;28;20113;-87
2022/10/19 04:08:43;;;;;;;12.30;9.32;;;;;;;;;;5054849;28;20083;-87
2022/10/19 04:11:12;;;;;;;8.75;7.03;;;;;;;;;;5055937;28;20039;-87
2022/10/19 04:13:39;;;;;;;9.10;5.90;;;;;;;;;;5055719;28;20025;-87
2022/10/19 04:16:05;;;;;;;8.30;5.32;;;;;;;;;;5054753;28;20033;-87
2022/10/19 04:18:30;;;;;;;10.18;5.63;;;;;;;;;;5056039;28;20102;-86
2022/10/19 04:20:56;;;;;;;9.63;5.15;;;;;;;;;;5055251;28;20396;-87
2022/10/19 04:23:23;;;;;;;6.95;4.40;;;;;;;;;;5055445;28;20097;-87
2022/10/19 04:25:48;;;;;;;7.30;4.53;;;;;;;;;;5054563;28;20036;-87
2022/10/19 04:28:13;;;;;;;5.68;3.97;;;;;;;;;;5055668;28;20036;-87
2022/10/19 04:30:39;;;;;;;6.35;3.85;;;;;;;;;;5056334;28;20075;-87
2022/10/19 04:33:04;;;;;;;8.93;4.55;;;;;;;;;;5057365;28;20363;-87
2022/10/19 04:35:30;;;;;;;10.05;6.00;;;;;;;;;;5056855;28;20039;-87
2022/10/19 04:37:57;;;;;;;8.90;5.60;;;;;;;;;;5056080;28;20040;-87
2022/10/19 04:40:22;;;;;;;8.35;5.40;;;;;;;;;;5054018;28;20043;-87
2022/10/19 04:42:48;;;;;;;8.80;4.82;;;;;;;;;;5054197;28;20124;-87
2022/10/19 04:45:16;;;;;;;7.03;4.75;;;;;;;;;;5053751;28;20037;-86
2022/10/19 04:47:41;;;;;;;12.48;4.45;;;;;;;;;;5057279;28;20029;-87
2022/10/19 04:50:07;;;;;;;7.00;4.03;;;;;;;;;;5054037;28;20067;-87
2022/10/19 04:52:34;;;;;;;5.60;4.20;;;;;;;;;;5055351;28;20032;-87
2022/10/19 04:54:59;;;;;;;7.20;4.30;;;;;;;;;;5055400;28;20478;-87
2022/10/19 04:57:25;;;;;;;10.13;4.20;;;;;;;;;;5055392;28;20127;-87
2022/10/19 04:59:50;;;;;;;6.38;4.18;;;;;;;;;;5054803;28;20033;-87
2022/10/19 05:02:16;;;;;;;7.28;4.25;;;;;;;;;;5055090;28;20034;-86
2022/10/19 05:04:41;;;;;;;5.97;3.80;;;;;;;;;;5053234;28;20178;-87
2022/10/19 05:07:07;;;;;;;7.10;4.43;;;;;;;;;;5054189;28;20029;-87
2022/10/19 05:09:32;;;;;;;6.70;4.22;;;;;;;;;;5055333;28;20041;-87
2022/10/19 05:11:58;;;;;;;10.30;4.78;;;;;;;;;;5055633;28;20111;-87
2022/10/19 05:14:23;;;;;;;8.77;4.93;;;;;;;;;;5054350;28;20243;-87
2022/10/19 05:16:48;;;;;;;10.77;5.93;;;;;;;;;;5054916;28;20025;-87
2022/10/19 05:19:14;;;;;;;8.32;5.57;;;;;;;;;;5054897;28;20482;-87
2022/10/19 05:21:39;;;;;;;8.70;5.50;;;;;;;;;;5055116;28;20029;-87
2022/10/19 05:24:05;;;;;;;8.52;5.72;;;;;;;;;;5056650;28;20033;-86
2022/10/19 05:26:30;;;;;;;7.70;5.00;;;;;;;;;;5055096;28;20040;-87
2022/10/19 05:29:00;;;;;;;9.55;4.68;;;;;;;;;;5054998;28;20031;-87
2022/10/19 05:31:33;;;;;;;8.88;4.53;;;;;;;;;;5053347;28;20094;-87
2022/10/19 05:33:59;;;;;;;8.35;4.47;;;;;;;;;;5056391;28;20068;-86
2022/10/19 05:36:33;;;;;;;7.03;4.30;;;;;;;;;;5054676;28;20108;-87
2022/10/19 05:39:05;;;;;;;9.75;4.70;;;;;;;;;;5053609;28;20045;-87
2022/10/19 05:41:31;;;;;;;7.50;4.28;;;;;;;;;;5066222;28;20540;-87
2022/10/19 05:43:59;;;;;;;7.28;4.50;;;;;;;;;;5074732;28;20044;-87
2022/10/19 05:46:25;;;;;;;10.60;5.00;;;;;;;;;;5075062;28;20446;-87
2022/10/19 05:48:51;;;;;;;12.35;4.95;;;;;;;;;;5075875;28;20473;-87
2022/10/19 05:51:19;;;;;;;11.15;5.25;;;;;;;;;;5078064;28;20020;-87
2022/10/19 05:53:45;;;;;;;8.45;5.00;;;;;;;;;;5078063;28;20028;-87
2022/10/19 05:56:14;;;;;;;9.50;5.13;;;;;;;;;;5076661;28;20043;-87
2022/10/19 05:58:40;;;;;;;6.53;4.93;;;;;;;;;;5057507;28;20035;-87
2022/10/19 06:01:07;;;;;;;6.85;4.82;;;;;;;;;;5057694;28;20025;-86
2022/10/19 06:03:32;;;;;;;12.10;5.20;;;;;;;;;;5058366;28;20041;-87
2022/10/19 06:06:01;;;;;;;10.07;4.55;;;;;;;;;;5058182;28;20116;-86
2022/10/19 06:08:26;;;;;;;8.63;4.93;;;;;;;;;;5058614;28;20033;-88
2022/10/19 06:10:52;;;;;;;12.02;6.00;;;;;;;;;;5058053;28;20048;-86
2022/10/19 06:13:18;;;;;;;6.90;4.85;;;;;;;;;;5058787;28;20044;-86
2022/10/19 06:15:44;;;;;;;7.20;5.05;;;;;;;;;;5057443;28;20033;-86
2022/10/19 06:18:11;;;;;;;6.68;4.68;;;;;;;;;;5058327;28;20063;-86
2022/10/19 06:20:39;;;;;;;7.25;4.65;;;;;;;;;;5058253;28;20068;-87
2022/10/19 06:23:06;;;;;;;9.23;4.80;;;;;;;;;;5058001;28;20043;-87
2022/10/19 06:25:32;;;;;;;7.25;4.78;;;;;;;;;;5056584;28;20028;-86
2022/10/19 06:27:58;;;;;;;9.70;4.88;;;;;;;;;;5058548;28;20067;-88
2022/10/19 06:30:23;;;;;;;7.43;4.80;;;;;;;;;;5059016;28;20033;-87
2022/10/19 06:32:49;;;;;;;9.73;5.03;;;;;;;;;;5058540;28;20490;-88
2022/10/19 06:35:15;;;;;;;7.25;5.15;;;;;;;;;;5057838;28;20092;-87
2022/10/19 06:37:41;;;;;;;6.90;4.90;;;;;;;;;;5058565;28;20029;-87
2022/10/19 06:40:07;;;;;;;8.50;4.28;;;;;;;;;;5057697;28;20029;-86
2022/10/19 06:42:33;;;;;;;7.13;4.68;;;;;;;;;;5057460;28;20033;-87
2022/10/19 06:44:59;;;;;;;14.02;5.40;;;;;;;;;;5056315;28;20037;-86
2022/10/19 06:47:29;;;;;;;8.90;5.63;;;;;;;;;;5058161;28;20041;-87
2022/10/19 06:49:56;;;;;;;7.53;5.03;;;;;;;;;;5058674;28;20041;-88
2022/10/19 06:52:21;;;;;;;8.70;5.20;;;;;;;;;;5055311;28;20068;-88
2022/10/19 06:54:47;;;;;;;8.70;5.30;;;;;;;;;;5055934;28;20421;-88
2022/10/19 06:57:12;;;;;;;6.22;5.47;;;;;;;;;;5058235;28;20103;-88
2022/10/19 06:59:38;;;;;;;8.40;4.47;;;;;;;;;;5056419;28;20113;-87
2022/10/19 07:02:03;;;;;;;14.52;8.68;;;;;;;;;;5059825;28;20064;-87
2022/10/19 07:04:29;;;;;;;8.15;5.47;;;;;;;;;;5057180;28;20111;-87
2022/10/19 07:06:54;;;;;;;9.65;5.30;;;;;;;;;;5057948;28;20040;-88
2022/10/19 07:09:21;;;;;;;13.25;5.75;;;;;;;;;;5058481;28;20450;-88
2022/10/19 07:11:47;;;;;;;7.75;5.00;;;;;;;;;;5057902;28;20126;-87
2022/10/19 07:14:12;;;;;;;8.05;5.10;;;;;;;;;;5057139;28;20045;-87
2022/10/19 07:16:38;;;;;;;10.82;4.57;;;;;;;;;;5058281;28;20067;-87
2022/10/19 07:19:03;;;;;;;11.60;6.45;;;;;;;;;;5055788;28;20044;-87
2022/10/19 07:21:29;;;;;;;10.75;5.20;;;;;;;;;;5057550;28;20043;-88
2022/10/19 07:23:54;;;;;;;6.38;4.63;;;;;;;;;;5055672;28;20020;-86
2022/10/19 07:26:25;;;;;;;7.82;5.13;;;;;;;;;;5055922;28;20041;-86
2022/10/19 07:28:51;;;;;;;10.77;5.50;;;;;;;;;;5056159;28;20045;-85
2022/10/19 07:31:19;;;;;;;7.75;5.60;;;;;;;;;;5036890;28;20040;-88
2022/10/19 07:33:45;;;;;;;13.10;5.43;;;;;;;;;;5035360;28;20033;-87
2022/10/19 07:36:12;;;;;;;9.32;5.85;;;;;;;;;;5032916;28;20044;-87
2022/10/19 07:38:38;;;;;;;10.05;5.50;;;;;;;;;;5032998;28;20034;-86
2022/10/19 07:41:11;;;;;;;10.18;5.70;;;;;;;;;;5033081;28;20026;-86
2022/10/19 07:43:37;;;;;;;9.95;5.75;;;;;;;;;;5033017;28;20108;-87
2022/10/19 07:46:06;;;;;;;12.40;5.47;;;;;;;;;;5032716;28;20483;-87
2022/10/19 07:48:32;;;;;;;12.88;5.47;;;;;;;;;;5031330;28;20406;-86
2022/10/19 07:51:00;;;;;;;9.02;6.05;;;;;;;;;;5031466;28;20041;-87
2022/10/19 07:53:25;;;;;;;8.55;5.40;;;;;;;;;;5032696;28;20437;-86
2022/10/19 07:55:51;;;;;;;11.50;6.38;;;;;;;;;;5031191;28;20528;-87
2022/10/19 07:58:16;;;;;;;10.60;6.55;;;;;;;;;;5032708;28;20037;-87
2022/10/19 08:00:42;;;;;;;9.68;6.32;;;;;;;;;;5032615;28;20029;-87
2022/10/19 08:03:07;;;;;;;14.68;8.18;;;;;;;;;;5032596;28;20478;-87
2022/10/19 08:05:33;;;;;;;14.95;8.35;;;;;;;;;;5032116;28;20068;-87
2022/10/19 08:07:59;;;;;;;16.65;8.38;;;;;;;;;;5035079;28;20390;-87
2022/10/19 08:10:24;;;;;;;14.13;7.80;;;;;;;;;;5034875;28;20036;-86
2022/10/19 08:12:50;;;;;;;15.32;9.48;;;;;;;;;;5030061;28;20453;-86
2022/10/19 08:15:15;;;;;;;18.08;10.57;;;;;;;;;;5032125;28;20033;-86
2022/10/19 08:17:41;;;;;;;17.45;9.95;;;;;;;;;;5031127;28;20039;-86
2022/10/19 08:20:07;;;;;;;19.25;9.75;;;;;;;;;;5032255;28;20049;-86
2022/10/19 08:22:33;;;;;;;17.20;9.82;;;;;;;;;;5032178;28;20037;-87
2022/10/19 08:24:58;;;;;;;28.73;12.77;;;;;;;;;;5030554;28;20129;-86
2022/10/19 08:27:24;;;;;;;23.95;14.02;;;;;;;;;;5030965;28;20080;-87
2022/10/19 08:29:50;;;;;;;26.38;14.35;;;;;;;;;;5031153;28;20397;-87
2022/10/19 08:32:16;;;;;;;24.33;14.55;;;;;;;;;;5030831;28;20491;-87
2022/10/19 08:34:42;;;;;;;26.75;13.73;;;;;;;;;;5031661;28;20045;-87
2022/10/19 08:37:08;;;;;;;20.65;12.65;;;;;;;;;;5030789;28;20034;-87
2022/10/19 08:39:33;;;;;;;23.60;13.90;;;;;;;;;;5032245;28;20438;-87
2022/10/19 08:42:02;;;;;;;22.73;13.07;;;;;;;;;;5032081;28;20061;-87
2022/10/19 08:44:33;;;;;;;20.05;13.27;;;;;;;;;;5031692;28;20030;-87
2022/10/19 08:47:26;;;;;;;21.15;13.13;;;;;;;;;;5030689;28;20505;-86
2022/10/19 08:49:52;;;;;;;21.35;13.93;;;;;;;;;;5032037;28;20030;-87
2022/10/19 08:52:21;;;;;;;21.30;12.85;;;;;;;;;;5031976;28;20040;-87
2022/10/19 08:54:56;;;;;;;22.27;13.15;;;;;;;;;;5030267;28;20076;-87
2022/10/19 08:57:46;;;;;;;23.83;13.82;;;;;;;;;;5031927;28;20029;-86
2022/10/19 09:00:24;;;;;;;21.23;14.00;;;;;;;;;;5030815;28;20642;-87
2022/10/19 09:03:12;;;;;;;23.65;13.20;;;;;;;;;;5032119;28;20117;-88
2022/10/19 09:05:41;;;;;;;19.85;13.38;;;;;;;;;;5031366;28;20038;-86
2022/10/19 09:08:09;;;;;;;20.30;12.63;;;;;;;;;;5031704;28;20120;-87
2022/10/19 09:10:39;;;;;;;22.20;12.75;;;;;;;;;;5031645;28;20037;-87
2022/10/19 09:13:19;;;;;;;21.77;12.10;;;;;;;;;;5031577;28;20509;-86
2022/10/19 09:15:48;;;;;;;20.98;13.80;;;;;;;;;;5031540;28;20121;-86
2022/10/19 09:18:17;;;;;;;18.73;13.05;;;;;;;;;;5030398;28;20065;-86
2022/10/19 09:20:45;;;;;;;22.55;13.20;;;;;;;;;;5030586;28;20030;-87
2022/10/19 09:23:28;;;;;;;18.27;12.15;;;;;;;;;;5032775;28;20047;-87
2022/10/19 09:25:55;;;;;;;20.42;13.18;;;;;;;;;;5035319;28;20516;-87
2022/10/19 09:28:42;;;;;;;21.58;12.98;;;;;;;;;;5034301;28;20029;-87
2022/10/19 09:31:16;;;;;;;22.05;12.68;;;;;;;;;;5034121;28;20041;-87
2022/10/19 09:33:45;;;;;;;19.48;13.15;;;;;;;;;;5034236;28;20112;-86
2022/10/19 09:36:10;;;;;;;15.95;11.32;;;;;;;;;;5033940;28;20044;-87
2022/10/19 09:38:36;;;;;;;17.27;10.43;;;;;;;;;;5035234;28;20037;-86
2022/10/19 09:41:14;;;;;;;20.77;11.32;;;;;;;;;;5033941;28;20033;-88
2022/10/19 09:43:49;;;;;;;16.73;11.27;;;;;;;;;;5035311;28;20041;-87
2022/10/19 09:46:25;;;;;;;16.20;11.05;;;;;;;;;;5063025;28;20036;-87
2022/10/19 09:48:52;;;;;;;19.63;11.50;;;;;;;;;;5075009;28;20044;-87
2022/10/19 09:51:19;;;;;;;22.40;11.98;;;;;;;;;;5075195;28;20029;-86
2022/10/19 09:53:54;;;;;;;27.48;12.43;;;;;;;;;;5073659;28;20083;-87
2022/10/19 09:56:23;;;;;;;23.35;13.05;;;;;;;;;;5074761;28;20036;-87
2022/10/19 09:58:56;;;;;;;23.15;14.45;;;;;;;;;;5075072;28;20036;-86
2022/10/19 10:01:37;;;;;;;26.77;16.48;;;;;;;;;;5073575;28;20032;-87
2022/10/19 10:04:13;;;;;;;23.42;15.75;;;;;;;;;;5075879;28;20062;-86
2022/10/19 10:06:41;;;;;;;26.05;16.63;;;;;;;;;;5075268;28;20036;-86
2022/10/19 10:09:13;;;;;;;26.40;15.63;;;;;;;;;;5075013;28;20040;-86
2022/10/19 10:11:39;;;;;;;27.05;16.60;;;;;;;;;;5075417;28;20409;-86
2022/10/19 10:14:32;;;;;;;27.58;16.23;;;;;;;;;;5075279;28;20079;-87
2022/10/19 10:17:11;;;;;;;23.83;15.63;;;;;;;;;;5070316;28;20059;-86
2022/10/19 10:19:49;;;;;;;29.08;16.63;;;;;;;;;;5073557;28;20028;-87
2022/10/19 10:22:34;;;;;;;27.52;16.10;;;;;;;;;;5075083;28;20090;-87
2022/10/19 10:25:00;;;;;;;26.05;15.63;;;;;;;;;;5074586;28;20115;-86
2022/10/19 10:27:33;;;;;;;27.23;16.13;;;;;;;;;;5074746;28;20044;-86
2022/10/19 10:30:05;;;;;;;26.40;16.55;;;;;;;;;;5074778;28;20501;-86
2022/10/19 10:32:30;;;;;;;24.05;15.57;;;;;;;;;;5074713;28;20028;-86
2022/10/19 10:35:00;;;;;;;23.80;15.23;;;;;;;;;;5073598;28;20405;-86
2022/10/19 10:37:37;;;;;;;24.25;15.45;;;;;;;;;;5074740;28;20032;-86
2022/10/19 10:40:04;;;;;;;24.50;14.70;;;;;;;;;;5075205;28;20452;-87
2022/10/19 10:42:44;;;;;;;28.35;14.85;;;;;;;;;;5073597;28;20047;-87
2022/10/19 10:45:28;;;;;;;21.38;14.05;;;;;;;;;;5074291;28;20032;-89
2022/10/19 10:47:53;;;;;;;23.35;14.85;;;;;;;;;;5055963;28;20039;-89
2022/10/19 10:50:21;;;;;;;22.80;12.65;;;;;;;;;;5073661;28;20409;-89
2022/10/19 10:52:59;;;;;;;18.30;13.05;;;;;;;;;;5073745;28;20032;-89
2022/10/19 10:55:25;;;;;;;19.17;13.70;;;;;;;;;;5073413;28;20564;-89
2022/10/19 10:57:57;;;;;;;25.35;13.25;;;;;;;;;;5073759;28;20130;-88
2022/10/19 11:00:23;;;;;;;19.73;13.88;;;;;;;;;;5075512;28;20035;-87
2022/10/19 11:03:10;;;;;;;23.13;14.15;;;;;;;;;;5075237;28;20032;-87
2022/10/19 11:05:53;;;;;;;22.33;14.05;;;;;;;;;;5073642;28;20040;-87
2022/10/19 11:08:24;;;;;;;24.70;14.77;;;;;;;;;;5075314;28;20036;-87
2022/10/19 11:11:39;;;;;;;24.70;14.05;;;;;;;;;;5074848;28;20050;-87
2022/10/19 11:14:32;;;;;;;23.80;14.10;;;;;;;;;;5071122;28;20052;-87
2022/10/19 11:17:04;;;;;;;21.77;13.70;;;;;;;;;;5075778;28;20573;-87
2022/10/19 11:19:36;;;;;;;23.95;13.02;;;;;;;;;;5076132;28;20036;-88
2022/10/19 11:22:07;;;;;;;21.52;13.52;;;;;;;;;;5075199;28;20036;-86
2022/10/19 11:24:54;;;;;;;20.10;13.13;;;;;;;;;;5074664;28;20051;-90
2022/10/19 11:27:41;;;;;;;25.25;12.30;;;;;;;;;;5074414;28;20029;-88
2022/10/19 11:30:07;;;;;;;19.92;12.05;;;;;;;;;;5074958;28;20485;-88
2022/10/19 11:33:00;;;;;;;17.05;12.02;;;;;;;;;;5073890;28;20044;-89
2022/10/19 11:36:00;;;;;;;19.75;12.18;;;;;;;;;;5074870;28;20041;-88
2022/10/19 11:38:42;;;;;;;18.80;11.95;;;;;;;;;;5075842;28;20050;-87
2022/10/19 11:41:20;;;;;;;19.58;11.82;;;;;;;;;;5076262;28;20055;-88
2022/10/19 11:44:11;;;;;;;15.75;11.80;;;;;;;;;;5074418;28;20032;-88
2022/10/19 11:47:08;;;;;;;20.15;12.45;;;;;;;;;;5074837;28;20040;-88
2022/10/19 11:49:41;;;;;;;20.05;11.80;;;;;;;;;;5076440;28;20096;-88
2022/10/19 11:52:31;;;;;;;17.67;12.13;;;;;;;;;;5078221;28;20036;-88
2022/10/19 11:55:33;;;;;;;17.48;11.25;;;;;;;;;;5076859;28;20097;-88
2022/10/19 11:58:10;;;;;;;19.83;11.02;;;;;;;;;;5076303;28;20047;-88
2022/10/19 12:00:48;;;;;;;17.35;11.57;;;;;;;;;;5076469;28;20039;-88
2022/10/19 12:03:52;;;;;;;20.13;11.95;;;;;;;;;;5076563;28;20090;-88
2022/10/19 12:06:44;;;;;;;23.87;12.07;;;;;;;;;;5075277;28;20047;-89
2022/10/19 12:09:35;;;;;;;18.08;10.90;;;;;;;;;;5076510;28;20255;-89
2022/10/19 12:12:13;;;;;;;16.92;10.30;;;;;;;;;;5052566;28;20569;-88
2022/10/19 12:14:41;;;;;;;17.08;10.70;;;;;;;;;;5076748;28;20036;-89
2022/10/19 12:17:13;;;;;;;16.27;10.35;;;;;;;;;;5076179;28;20043;-89
2022/10/19 12:19:43;;;;;;;17.13;10.50;;;;;;;;;;5076672;28;20024;-88
2022/10/19 12:22:16;;;;;;;16.65;10.40;;;;;;;;;;5059234;28;20047;-88
2022/10/19 12:24:41;;;;;;;17.00;10.27;;;;;;;;;;5074681;28;20427;-88
2022/10/19 12:27:12;;;;;;;15.88;9.85;;;;;;;;;;5074898;28;20328;-87
2022/10/19 12:29:42;;;;;;;13.65;9.63;;;;;;;;;;5075094;28;20469;-87
2022/10/19 12:32:13;;;;;;;16.83;9.88;;;;;;;;;;5074196;28;20560;-88
2022/10/19 12:35:07;;;;;;;12.32;8.88;;;;;;;;;;5074383;28;20044;-87
2022/10/19 12:37:43;;;;;;;;;;;;;;;;;;5075008;28;20042;-87
2022/10/19 12:40:26;;;;;;;12.90;8.10;;;;;;;;;;5072184;28;19919;-87
2022/10/19 12:43:10;;;;;;;15.70;10.60;;;;;;;;;;5073356;28;20034;-87
2022/10/19 12:45:40;;;;;;;14.27;10.38;;;;;;;;;;5073360;28;20040;-88
2022/10/19 12:48:11;;;;;;;15.40;11.23;;;;;;;;;;5073363;28;20131;-87
2022/10/19 12:50:49;;;;;;;17.85;11.70;;;;;;;;;;5072418;28;20374;-87
2022/10/19 12:53:31;;;;;;;16.98;11.48;;;;;;;;;;5074436;28;20032;-87
2022/10/19 12:56:19;;;;;;;18.30;10.88;;;;;;;;;;5073067;28;20075;-86
2022/10/19 12:58:44;;;;;;;20.17;11.70;;;;;;;;;;5075035;28;20039;-88
2022/10/19 13:01:36;;;;;;;20.08;12.30;;;;;;;;;;5077453;28;20029;-88
2022/10/19 13:04:15;;;;;;;20.17;12.02;;;;;;;;;;5074235;28;20052;-87
2022/10/19 13:07:06;;;;;;;16.63;11.13;;;;;;;;;;5077788;28;20090;-87
2022/10/19 13:09:37;;;;;;;18.77;11.53;;;;;;;;;;5070339;28;20047;-87
2022/10/19 13:12:15;;;;;;;20.45;12.10;;;;;;;;;;5075893;28;20037;-87
2022/10/19 13:14:46;;;;;;;21.25;11.95;;;;;;;;;;5076628;28;20040;-87
2022/10/19 13:17:33;;;;;;;18.88;11.68;;;;;;;;;;5076644;28;20041;-86
2022/10/19 13:20:14;;;;;;;17.15;10.43;;;;;;;;;;5076414;28;20033;-87
2022/10/19 13:22:40;;;;;;;17.10;10.32;;;;;;;;;;5076688;28;20033;-88
2022/10/19 13:25:28;;;;;;;19.15;11.23;;;;;;;;;;5076686;28;20082;-87
2022/10/19 13:28:06;;;;;;;17.05;10.02;;;;;;;;;;5076996;28;20106;-86
2022/10/19 13:30:34;;;;;;;14.48;9.40;;;;;;;;;;5076773;28;20119;-86
2022/10/19 13:33:27;;;;;;;13.55;9.15;;;;;;;;;;5075354;28;20051;-86
2022/10/19 13:35:58;;;;;;;17.17;10.73;;;;;;;;;;5076581;28;20497;-87
2022/10/19 13:38:46;;;;;;;17.15;10.85;;;;;;;;;;5076727;28;20036;-86
2022/10/19 13:41:24;;;;;;;14.88;10.13;;;;;;;;;;5075621;28;20064;-86
2022/10/19 13:43:54;;;;;;;15.85;10.48;;;;;;;;;;5076063;28;20489;-86
2022/10/19 13:46:28;;;;;;;14.88;9.90;;;;;;;;;;5075294;28;20127;-87
2022/10/19 13:49:15;;;;;;;15.13;10.20;;;;;;;;;;5075635;28;20135;-85
2022/10/19 13:52:02;;;;;;;17.00;9.65;;;;;;;;;;5075862;28;20060;-86
2022/10/19 13:54:49;;;;;;;14.35;10.02;;;;;;;;;;5076396;28;20040;-86
2022/10/19 13:57:20;;;;;;;17.45;10.52;;;;;;;;;;5074897;28;20051;-86
2022/10/19 14:00:02;;;;;;;16.95;9.07;;;;;;;;;;5076047;28;20090;-87
2022/10/19 14:02:45;;;;;;;18.92;10.65;;;;;;;;;;5077120;28;20040;-89
2022/10/19 14:05:39;;;;;;;15.07;10.48;;;;;;;;;;5074725;28;20059;-87
2022/10/19 14:08:35;;;;;;;12.52;9.10;;;;;;;;;;5077389;28;20037;-86
2022/10/19 14:11:02;;;;;;;14.70;8.90;;;;;;;;;;5073770;28;20028;-86
2022/10/19 14:13:28;;;;;;;14.82;10.32;;;;;;;;;;5076447;28;20056;-86
2022/10/19 14:15:56;;;;;;;11.95;8.73;;;;;;;;;;5077503;28;20032;-87
2022/10/19 14:18:31;;;;;;;16.40;9.60;;;;;;;;;;5076434;28;20024;-87
2022/10/19 14:20:59;;;;;;;18.08;9.52;;;;;;;;;;5076554;28;20028;-87
2022/10/19 14:23:26;;;;;;;17.13;11.27;;;;;;;;;;5075495;28;20039;-87
2022/10/19 14:25:56;;;;;;;17.00;11.48;;;;;;;;;;5075461;28;20610;-87
2022/10/19 14:28:22;;;;;;;18.75;11.95;;;;;;;;;;5076558;28;20039;-87
2022/10/19 14:31:08;;;;;;;15.55;9.82;;;;;;;;;;5077860;28;20079;-87
2022/10/19 14:33:44;;;;;;;14.85;9.45;;;;;;;;;;5077299;28;20040;-87
2022/10/19 14:36:19;;;;;;;13.13;9.13;;;;;;;;;;5077690;28;20032;-87
2022/10/19 14:38:47;;;;;;;13.68;8.15;;;;;;;;;;5077415;28;20029;-87
2022/10/19 14:41:27;;;;;;;12.25;8.20;;;;;;;;;;5077529;28;20017;-87
2022/10/19 14:43:54;;;;;;;18.35;11.82;;;;;;;;;;5079775;28;20032;-88
2022/10/19 14:46:20;;;;;;;13.23;10.10;;;;;;;;;;5079402;28;20504;-88
2022/10/19 14:48:47;;;;;;;13.55;8.55;;;;;;;;;;5077787;28;20032;-88
2022/10/19 14:51:35;;;;;;;12.27;8.80;;;;;;;;;;5075956;28;20115;-87
2022/10/19 14:54:18;;;;;;;13.30;8.40;;;;;;;;;;5076834;28;20032;-87
2022/10/19 14:56:46;;;;;;;11.15;7.90;;;;;;;;;;5078093;28;20119;-88